Time;durP1;ratioP1;P1;durP2;ratioP2;P2;SDS_P1;SDS_P2;PMS_P1;PMS_P2;Temp;Humidity;BMP_temperature;BMP_pressure;BME280_temperature;BME280_humidity;BME280_pressure;Samples;Min_cycle;Max_cycle;Signal;HPM_P1;HPM_P2
2023/08/03 19:02:34;;;;;;;10.63;4.65;;;31.80;99.90;;;;;;5041332;28;20421;-56
2023/08/03 19:05:00;;;;;;;11.52;4.20;;;31.80;99.90;;;;;;5029433;28;20466;-56
2023/08/03 19:07:26;;;;;;;5.63;3.53;;;31.90;99.90;;;;;;5041477;28;20056;-57
2023/08/03 19:09:52;;;;;;;12.70;4.03;;;32.00;99.90;;;;;;5029198;28;20033;-56
2023/08/03 19:12:17;;;;;;;18.58;4.90;;;32.00;99.90;;;;;;5028475;28;20014;-57
2023/08/03 19:14:43;;;;;;;17.65;4.00;;;32.10;99.90;;;;;;5035216;28;20112;-55
2023/08/03 19:17:09;;;;;;;10.15;3.85;;;32.20;99.90;;;;;;5034718;28;20096;-55
2023/08/03 19:19:35;;;;;;;9.68;3.70;;;32.20;99.90;;;;;;5030597;28;20420;-55
2023/08/03 19:22:02;;;;;;;10.43;4.28;;;32.40;99.90;;;;;;5034553;28;20040;-55
2023/08/03 19:24:29;;;;;;;15.93;5.10;;;32.40;99.90;;;;;;5031024;28;20116;-56
2023/08/03 19:26:54;;;;;;;9.18;4.00;;;32.50;99.90;;;;;;5028488;28;20091;-56
2023/08/03 19:29:20;;;;;;;8.63;3.42;;;32.50;99.90;;;;;;5041189;28;20021;-56
2023/08/03 19:31:47;;;;;;;11.13;3.20;;;32.60;99.90;;;;;;5026864;28;20093;-57
2023/08/03 19:34:14;;;;;;;12.20;2.83;;;32.60;99.90;;;;;;5027410;28;20106;-56
2023/08/03 19:36:39;;;;;;;7.97;2.95;;;32.70;99.90;;;;;;5028254;28;20484;-57
2023/08/03 19:39:05;;;;;;;5.65;2.63;;;32.70;99.90;;;;;;5027869;28;20051;-56
2023/08/03 19:41:31;;;;;;;6.68;2.03;;;32.70;99.90;;;;;;5027871;28;20033;-56
2023/08/03 19:43:56;;;;;;;7.70;2.38;;;32.70;99.90;;;;;;5028228;28;20069;-56
2023/08/03 19:46:22;;;;;;;6.32;2.35;;;32.80;99.90;;;;;;5028105;28;20022;-55
2023/08/03 19:48:48;;;;;;;4.15;2.50;;;32.80;99.90;;;;;;5028139;28;20374;-55
2023/08/03 19:51:14;;;;;;;6.18;1.98;;;32.80;99.90;;;;;;5027792;28;20436;-55
2023/08/03 19:53:39;;;;;;;5.93;2.15;;;32.90;99.90;;;;;;5027981;28;20022;-55
2023/08/03 19:56:06;;;;;;;8.15;2.30;;;32.90;99.90;;;;;;5027745;28;20469;-55
2023/08/03 19:58:32;;;;;;;4.05;1.92;;;32.90;99.90;;;;;;5027762;28;20026;-55
2023/08/03 20:01:07;;;;;;;4.65;2.50;;;32.90;99.90;;;;;;5029563;23;20054;-54
2023/08/03 20:03:33;;;;;;;7.88;3.28;;;32.90;99.90;;;;;;5024692;28;20014;-55
2023/08/03 20:05:58;;;;;;;11.48;3.08;;;32.90;99.90;;;;;;5023068;28;20041;-54
2023/08/03 20:08:24;;;;;;;8.57;3.05;;;32.90;99.90;;;;;;5027770;28;20096;-53
2023/08/03 20:10:52;;;;;;;5.28;3.30;;;32.90;99.90;;;;;;5020143;28;20037;-55
2023/08/03 20:13:18;;;;;;;8.43;2.33;;;32.90;99.90;;;;;;5016323;28;20530;-54
2023/08/03 20:15:44;;;;;;;4.93;2.63;;;33.00;99.90;;;;;;5013639;28;20037;-51
2023/08/03 20:18:11;;;;;;;4.03;2.60;;;32.90;99.90;;;;;;5014140;28;20022;-52
2023/08/03 20:20:37;;;;;;;6.47;2.78;;;32.90;99.90;;;;;;5014057;28;20061;-52
2023/08/03 20:23:03;;;;;;;8.77;2.97;;;32.90;99.90;;;;;;5012584;28;20481;-52
2023/08/03 20:25:28;;;;;;;9.73;2.78;;;33.00;99.90;;;;;;5014173;28;20079;-54
2023/08/03 20:27:54;;;;;;;9.23;3.08;;;32.90;99.90;;;;;;5014356;28;20030;-53
2023/08/03 20:30:20;;;;;;;11.20;3.47;;;33.00;99.90;;;;;;5013614;28;20033;-53
2023/08/03 20:32:46;;;;;;;13.05;3.22;;;33.00;99.90;;;;;;5013049;28;20084;-53
2023/08/03 20:35:11;;;;;;;5.68;2.83;;;33.00;99.90;;;;;;5013523;28;20026;-55
2023/08/03 20:37:38;;;;;;;5.70;2.90;;;33.00;99.90;;;;;;5001249;28;20028;-52
2023/08/03 20:40:04;;;;;;;4.32;2.67;;;33.00;99.90;;;;;;5013487;28;20026;-55
2023/08/03 20:42:30;;;;;;;7.53;2.40;;;33.00;99.90;;;;;;5013832;28;20030;-50
2023/08/03 20:44:56;;;;;;;8.70;2.50;;;33.00;99.90;;;;;;5012873;28;20268;-53
2023/08/03 20:47:21;;;;;;;10.15;2.50;;;33.00;99.90;;;;;;5013787;28;20040;-55
2023/08/03 20:49:47;;;;;;;3.13;2.17;;;33.00;99.90;;;;;;5013742;28;20497;-53
2023/08/03 20:52:13;;;;;;;4.65;2.20;;;33.00;99.90;;;;;;5013513;28;20435;-53
2023/08/03 20:54:39;;;;;;;7.47;2.67;;;33.00;99.90;;;;;;5013240;28;20057;-52
2023/08/03 20:57:05;;;;;;;9.38;2.17;;;33.00;99.90;;;;;;5013498;28;20017;-54
2023/08/03 20:59:31;;;;;;;5.97;1.98;;;33.00;99.90;;;;;;5024179;23;20106;-50
2023/08/03 21:01:57;;;;;;;5.55;2.28;;;33.00;99.90;;;;;;5005679;28;20121;-50
2023/08/03 21:04:22;;;;;;;4.03;2.15;;;33.00;99.90;;;;;;4994798;28;20487;-50
2023/08/03 21:06:48;;;;;;;7.70;4.10;;;33.00;99.90;;;;;;5020937;28;20058;-49
2023/08/03 21:09:14;;;;;;;8.38;2.97;;;33.00;99.90;;;;;;4995242;28;20069;-48
2023/08/03 21:11:40;;;;;;;6.78;2.40;;;33.00;99.90;;;;;;5012050;28;20026;-49
2023/08/03 21:14:07;;;;;;;12.40;2.75;;;33.00;99.90;;;;;;5011308;28;20072;-48
2023/08/03 21:16:32;;;;;;;6.65;2.28;;;33.00;99.90;;;;;;5010640;28;20416;-48
2023/08/03 21:18:58;;;;;;;5.30;1.90;;;33.00;99.90;;;;;;5012882;28;20034;-49
2023/08/03 21:21:24;;;;;;;8.32;2.40;;;33.00;99.90;;;;;;5012928;28;20042;-50
2023/08/03 21:23:50;;;;;;;6.53;2.22;;;33.00;99.90;;;;;;5009120;28;20437;-49
2023/08/03 21:26:16;;;;;;;3.65;2.00;;;33.00;99.90;;;;;;5002365;28;20140;-48
2023/08/03 21:28:42;;;;;;;4.18;1.95;;;33.00;99.90;;;;;;4995780;28;20467;-49
2023/08/03 21:31:07;;;;;;;8.45;2.22;;;33.00;99.90;;;;;;4993442;28;20030;-49
2023/08/03 21:33:33;;;;;;;13.70;2.20;;;33.00;99.90;;;;;;5008679;28;20017;-49
2023/08/03 21:35:59;;;;;;;8.75;2.92;;;33.00;99.90;;;;;;5010907;28;20032;-50
2023/08/03 21:38:26;;;;;;;9.70;2.95;;;33.00;99.90;;;;;;5006794;28;20054;-50
2023/08/03 21:40:52;;;;;;;7.47;2.47;;;33.00;99.90;;;;;;5009164;28;20096;-50
2023/08/03 21:43:18;;;;;;;3.80;1.95;;;33.00;99.90;;;;;;5004024;28;20482;-49
2023/08/03 21:45:51;;;;;;;4.75;1.80;;;33.00;99.90;;;;;;5005922;28;20017;-50
2023/08/03 21:48:17;;;;;;;4.78;1.80;;;33.00;99.90;;;;;;5004398;28;20133;-49
2023/08/03 21:50:44;;;;;;;5.82;1.48;;;33.00;99.90;;;;;;5006200;28;20026;-51
2023/08/03 21:53:09;;;;;;;6.57;1.83;;;33.00;99.90;;;;;;5001156;28;20019;-50
2023/08/03 21:55:37;;;;;;;8.68;1.88;;;33.00;99.90;;;;;;5003619;28;20044;-50
2023/08/03 21:58:04;;;;;;;6.43;2.22;;;32.90;99.90;;;;;;5012270;28;20117;-50
2023/08/03 22:00:30;;;;;;;12.13;2.47;;;32.90;99.90;;;;;;5006522;28;20049;-50
2023/08/03 22:02:56;;;;;;;3.58;2.17;;;32.90;99.90;;;;;;5004810;28;20026;-49
2023/08/03 22:05:22;;;;;;;4.57;1.80;;;32.90;99.90;;;;;;4998888;28;20447;-50
2023/08/03 22:07:48;;;;;;;5.00;2.47;;;33.00;99.90;;;;;;5002559;28;20026;-51
2023/08/03 22:10:16;;;;;;;6.03;1.92;;;32.90;99.90;;;;;;4995356;28;20775;-51
2023/08/03 22:12:42;;;;;;;4.95;2.42;;;32.90;99.90;;;;;;4996072;28;20032;-51
2023/08/03 22:15:09;;;;;;;19.40;2.50;;;32.90;99.90;;;;;;5009071;28;20030;-52
2023/08/03 22:17:35;;;;;;;8.73;3.00;;;32.90;99.90;;;;;;4997495;28;20042;-50
2023/08/03 22:20:02;;;;;;;14.90;2.40;;;33.00;99.90;;;;;;5010669;28;20022;-48
2023/08/03 22:22:28;;;;;;;7.30;2.05;;;32.90;99.90;;;;;;4992121;28;20053;-49
2023/08/03 22:24:54;;;;;;;9.93;2.00;;;32.90;99.90;;;;;;5005294;28;20100;-49
2023/08/03 22:27:20;;;;;;;7.15;2.20;;;32.80;99.90;;;;;;5011105;28;20026;-50
2023/08/03 22:29:46;;;;;;;5.68;1.90;;;32.80;99.90;;;;;;5012107;28;20030;-49
2023/08/03 22:32:11;;;;;;;11.60;3.63;;;32.80;99.90;;;;;;5012062;28;20025;-50
2023/08/03 22:34:37;;;;;;;11.85;2.28;;;32.80;99.90;;;;;;5011249;28;20034;-51
2023/08/03 22:37:03;;;;;;;10.65;2.00;;;32.70;99.90;;;;;;5011464;28;20022;-47
2023/08/03 22:39:29;;;;;;;9.82;1.70;;;32.70;99.90;;;;;;5012057;28;20053;-48
2023/08/03 22:41:54;;;;;;;6.50;2.47;;;32.70;99.90;;;;;;5011952;28;20044;-49
2023/08/03 22:44:20;;;;;;;16.10;2.50;;;32.60;99.90;;;;;;5010617;28;20113;-49
2023/08/03 22:46:46;;;;;;;9.60;2.38;;;32.60;99.90;;;;;;4991946;28;20037;-49
2023/08/03 22:49:12;;;;;;;9.43;2.10;;;32.60;99.90;;;;;;4991984;28;20027;-50
2023/08/03 22:51:37;;;;;;;9.98;2.03;;;32.60;99.90;;;;;;5000231;28;20079;-50
2023/08/03 22:54:03;;;;;;;15.82;3.45;;;32.60;99.90;;;;;;5011669;28;20058;-49
2023/08/03 22:56:29;;;;;;;7.57;2.40;;;32.60;99.90;;;;;;5010408;28;20033;-49
2023/08/03 22:58:55;;;;;;;13.60;2.53;;;32.60;99.90;;;;;;5011702;28;20025;-49
2023/08/03 23:01:23;;;;;;;15.25;2.88;;;32.60;99.90;;;;;;5022991;23;20057;-52
2023/08/03 23:03:49;;;;;;;5.82;2.40;;;32.60;99.90;;;;;;5010896;28;20042;-51
2023/08/03 23:06:22;;;;;;;9.20;2.25;;;32.60;99.90;;;;;;5015587;28;20022;-52
2023/08/03 23:08:49;;;;;;;11.63;2.22;;;32.60;99.90;;;;;;5011736;28;20029;-53
2023/08/03 23:11:16;;;;;;;11.25;2.42;;;32.60;99.90;;;;;;5011706;28;20026;-54
2023/08/03 23:13:42;;;;;;;9.90;1.80;;;32.60;99.90;;;;;;5012233;28;20180;-54
2023/08/03 23:16:08;;;;;;;10.70;1.75;;;32.60;99.90;;;;;;5012492;28;20022;-54
2023/08/03 23:18:35;;;;;;;5.72;2.22;;;32.60;99.90;;;;;;5011299;28;20034;-53
2023/08/03 23:21:02;;;;;;;7.20;1.70;;;32.60;99.90;;;;;;5009233;28;20026;-53
2023/08/03 23:23:28;;;;;;;7.32;2.08;;;32.60;99.90;;;;;;5010947;28;20077;-53
2023/08/03 23:26:05;;;;;;;5.72;2.55;;;32.60;99.90;;;;;;5012932;28;20060;-53
2023/08/03 23:28:32;;;;;;;5.32;1.45;;;32.50;99.90;;;;;;5010467;28;20030;-53
2023/08/03 23:30:57;;;;;;;20.67;12.90;;;32.50;99.90;;;;;;5011751;28;20031;-54
2023/08/03 23:33:23;;;;;;;8.60;3.08;;;32.50;99.90;;;;;;5009361;28;20057;-52
2023/08/03 23:35:49;;;;;;;9.02;2.30;;;32.50;99.90;;;;;;5007964;28;20026;-52
2023/08/03 23:38:15;;;;;;;11.45;2.00;;;32.50;99.90;;;;;;5007080;28;20026;-53
2023/08/03 23:40:41;;;;;;;8.75;2.22;;;32.50;99.90;;;;;;5002264;28;20473;-53
2023/08/03 23:43:06;;;;;;;6.28;1.67;;;32.50;99.90;;;;;;5003334;28;20042;-54
2023/08/03 23:45:32;;;;;;;7.03;1.65;;;32.40;99.90;;;;;;5005938;28;20421;-53
2023/08/03 23:47:58;;;;;;;4.25;1.92;;;32.40;99.90;;;;;;5010524;28;20494;-54
2023/08/03 23:50:24;;;;;;;7.82;1.60;;;32.40;99.90;;;;;;5009800;28;20076;-53
2023/08/03 23:52:49;;;;;;;8.40;1.65;;;32.30;99.90;;;;;;5013013;28;20557;-54
2023/08/03 23:55:15;;;;;;;10.15;1.50;;;32.30;99.90;;;;;;5012656;28;20026;-54
2023/08/03 23:57:42;;;;;;;14.60;2.30;;;32.30;99.90;;;;;;5009872;28;20460;-54
